createdAt,value
2018-05-21T00:00:12.553Z,1020.3
2018-05-21T00:05:12.466Z,1020.3
2018-05-21T00:10:12.546Z,1020.2
2018-05-21T00:15:12.633Z,1020.2
2018-05-21T00:20:12.654Z,1020.2
2018-05-21T00:25:12.609Z,1020.2
2018-05-21T00:30:12.560Z,1020.2
2018-05-21T00:35:12.421Z,1020.2
2018-05-21T00:40:12.462Z,1020.2
2018-05-21T00:45:12.388Z,1020.2
2018-05-21T00:50:12.615Z,1020.1
2018-05-21T00:55:12.459Z,1020.1
2018-05-21T01:00:12.335Z,1020.1
2018-05-21T01:05:12.334Z,1020
2018-05-21T01:10:12.525Z,1020
2018-05-21T01:15:12.564Z,1020
2018-05-21T01:20:12.590Z,1020
2018-05-21T01:25:12.355Z,1020
2018-05-21T01:30:12.589Z,1020
2018-05-21T01:35:12.392Z,1020
2018-05-21T01:40:12.310Z,1020
2018-05-21T01:45:12.281Z,1019.9
2018-05-21T01:50:12.461Z,1020
2018-05-21T01:55:12.339Z,1019.9
2018-05-21T02:00:12.361Z,1019.8
2018-05-21T02:05:12.587Z,1019.8
2018-05-21T02:10:12.570Z,1019.8
2018-05-21T02:15:12.580Z,1019.8
2018-05-21T02:20:12.376Z,1019.8
2018-05-21T02:25:12.461Z,1019.8
2018-05-21T02:30:12.466Z,1019.8
2018-05-21T02:35:12.186Z,1019.8
2018-05-21T02:40:12.478Z,1019.8
2018-05-21T02:45:12.184Z,1019.7
2018-05-21T02:50:12.305Z,1019.7
2018-05-21T02:55:12.341Z,1019.7
2018-05-21T03:00:12.349Z,1019.6
2018-05-21T03:05:12.313Z,1019.6
2018-05-21T03:10:12.407Z,1019.6
2018-05-21T03:15:12.140Z,1019.6
2018-05-21T03:20:12.374Z,1019.5
2018-05-21T03:25:12.129Z,1019.5
2018-05-21T03:30:12.254Z,1019.5
2018-05-21T03:35:12.195Z,1019.4
2018-05-21T03:40:12.309Z,1019.5
2018-05-21T03:45:12.094Z,1019.4
2018-05-21T03:50:12.394Z,1019.4
2018-05-21T03:55:12.396Z,1019.4
2018-05-21T04:00:12.321Z,1019.4
2018-05-21T04:05:12.370Z,1019.4
2018-05-21T04:10:12.359Z,1019.3
2018-05-21T04:15:11.985Z,1019.3
2018-05-21T04:20:12.338Z,1019.3
2018-05-21T04:25:12.023Z,1019.3
2018-05-21T04:30:11.998Z,1019.3
2018-05-21T04:35:12.373Z,1019.2
2018-05-21T04:40:12.238Z,1019.2
2018-05-21T04:45:12.332Z,1019.2
2018-05-21T04:50:12.266Z,1019.2
2018-05-21T04:55:12.238Z,1019.1
2018-05-21T05:00:12.214Z,1019.1
2018-05-21T05:05:12.212Z,1019.1
2018-05-21T05:10:12.114Z,1019.1
2018-05-21T05:15:12.040Z,1019.1
2018-05-21T05:20:12.029Z,1019.1
2018-05-21T05:25:12.179Z,1019.1
2018-05-21T05:30:12.025Z,1019
2018-05-21T05:35:11.889Z,1018.9
2018-05-21T05:40:12.232Z,1018.9
2018-05-21T05:45:12.190Z,1018.9
2018-05-21T05:50:12.085Z,1018.8
2018-05-21T05:55:12.158Z,1018.7
2018-05-21T06:00:12.207Z,1018.8
2018-05-21T06:05:12.176Z,1018.8
2018-05-21T06:10:12.178Z,1018.8
2018-05-21T06:15:12.224Z,1018.8
2018-05-21T06:20:11.862Z,1018.7
2018-05-21T06:25:11.821Z,1018.7
2018-05-21T06:30:12.157Z,1018.7
2018-05-21T06:35:11.989Z,1018.7
2018-05-21T06:40:11.955Z,1018.6
2018-05-21T06:45:11.937Z,1018.6
2018-05-21T06:50:12.132Z,1018.6
2018-05-21T06:55:11.755Z,1018.6
2018-05-21T07:00:12.111Z,1018.5
2018-05-21T07:05:12.275Z,1018.5
2018-05-21T07:10:11.999Z,1018.5
2018-05-21T07:15:11.964Z,1018.5
2018-05-21T07:20:11.781Z,1018.5
2018-05-21T07:25:11.881Z,1018.5
2018-05-21T07:30:11.894Z,1018.4
2018-05-21T07:35:11.849Z,1018.4
2018-05-21T07:40:11.856Z,1018.3
2018-05-21T07:45:11.901Z,1018.2
2018-05-21T07:50:11.931Z,1018.2
2018-05-21T07:55:11.952Z,1018.2
2018-05-21T08:00:11.825Z,1018.2
2018-05-21T08:05:11.736Z,1018.2
2018-05-21T08:10:12.050Z,1018.2
2018-05-21T08:15:11.645Z,1018.2
2018-05-21T08:20:11.966Z,1018.1
2018-05-21T08:25:11.775Z,1018
2018-05-21T08:30:11.817Z,1017.9
2018-05-21T08:35:12.029Z,1018
2018-05-21T08:40:11.878Z,1018
2018-05-21T08:45:11.986Z,1017.9
2018-05-21T08:50:11.587Z,1017.9
2018-05-21T08:55:11.624Z,1017.8
2018-05-21T09:00:11.921Z,1017.8
2018-05-21T09:05:11.616Z,1017.8
2018-05-21T09:10:12.035Z,1017.7
2018-05-21T09:15:11.672Z,1017.7
2018-05-21T09:20:11.772Z,1017.6
2018-05-21T09:25:11.827Z,1017.6
2018-05-21T09:30:11.834Z,1017.5
2018-05-21T09:35:11.690Z,1017.4
2018-05-21T09:40:11.784Z,1017.4
2018-05-21T09:45:11.871Z,1017.4
2018-05-21T09:50:11.800Z,1017.4
2018-05-21T09:55:11.836Z,1017.4
2018-05-21T10:00:11.826Z,1017.4
2018-05-21T10:05:11.740Z,1017.4
2018-05-21T10:10:11.746Z,1017.4
2018-05-21T10:15:11.708Z,1017.4
2018-05-21T10:20:11.592Z,1017.4
2018-05-21T10:25:11.638Z,1017.4
2018-05-21T10:30:11.625Z,1017.4
2018-05-21T10:35:11.580Z,1017.4
2018-05-21T10:40:11.586Z,1017.4
2018-05-21T10:45:11.611Z,1017.4
2018-05-21T10:50:11.565Z,1017.4
2018-05-21T10:55:11.733Z,1017.4
2018-05-21T11:00:11.744Z,1017.4
2018-05-21T11:05:11.592Z,1017.4
2018-05-21T11:10:11.857Z,1017.4
2018-05-21T11:15:11.467Z,1017.4
2018-05-21T11:20:11.573Z,1017.4
2018-05-21T11:25:11.489Z,1017.4
2018-05-21T11:30:11.425Z,1017.4
2018-05-21T11:35:11.489Z,1017.4
2018-05-21T11:40:11.517Z,1017.4
2018-05-21T11:45:11.635Z,1017.4
2018-05-21T11:50:11.894Z,1017.4
2018-05-21T11:55:11.718Z,1017.4
2018-05-21T12:00:11.727Z,1017.4
2018-05-21T12:05:11.359Z,1017.4
2018-05-21T12:10:11.360Z,1017.4
2018-05-21T12:15:11.552Z,1017.4
2018-05-21T12:20:11.499Z,1017.4
2018-05-21T12:25:11.541Z,1017.4
2018-05-21T12:30:11.424Z,1017.4
2018-05-21T12:35:11.479Z,1017.4
2018-05-21T12:40:11.518Z,1017.4
2018-05-21T12:45:11.582Z,1017.4
2018-05-21T12:50:11.484Z,1017.4
2018-05-21T12:55:11.574Z,1017.4
2018-05-21T13:00:11.439Z,1017.4
2018-05-21T13:05:11.606Z,1017.4
2018-05-21T13:10:11.561Z,1017.4
2018-05-21T13:15:11.560Z,1017.4
2018-05-21T13:20:11.267Z,1017.4
2018-05-21T13:25:11.399Z,1017.4
2018-05-21T13:30:11.223Z,1017.4
2018-05-21T13:35:11.547Z,1017.4
2018-05-21T13:40:11.280Z,1017.4
2018-05-21T13:45:11.449Z,1017.4
2018-05-21T13:50:11.388Z,1017.4
2018-05-21T13:55:11.415Z,1017.4
2018-05-21T14:00:11.422Z,1017.4
2018-05-21T14:05:11.144Z,1017.4
2018-05-21T14:10:11.181Z,1017.4
2018-05-21T14:15:11.272Z,1017.4
2018-05-21T14:20:11.396Z,1017.4
2018-05-21T14:25:11.557Z,1017.4
2018-05-21T14:30:11.288Z,1017.4
2018-05-21T14:35:11.499Z,1017.4
2018-05-21T14:40:11.502Z,1014.5
2018-05-21T14:45:11.115Z,1014.5
2018-05-21T14:50:11.093Z,1014.4
2018-05-21T14:55:11.228Z,1014.3
2018-05-21T15:00:11.241Z,1014.3
2018-05-21T15:05:11.224Z,1014.2
2018-05-21T15:10:11.129Z,1014.2
2018-05-21T15:15:11.144Z,1014.2
2018-05-21T15:20:11.187Z,1014.1
2018-05-21T15:25:11.320Z,1014.1
2018-05-21T15:30:11.274Z,1014
2018-05-21T15:35:11.318Z,1014
2018-05-21T15:40:11.244Z,1013.9
2018-05-21T15:45:11.207Z,1013.8
2018-05-21T15:50:11.063Z,1013.9
2018-05-21T15:55:11.119Z,1013.8
2018-05-21T16:00:10.984Z,1013.7
2018-05-21T16:05:11.146Z,1013.6
2018-05-21T16:10:11.004Z,1013.5
2018-05-21T16:15:11.267Z,1013.5
2018-05-21T16:20:11.222Z,1013.5
2018-05-21T16:25:11.284Z,1013.4
2018-05-21T16:30:11.037Z,1013.4
2018-05-21T16:35:11.214Z,1013.4
2018-05-21T16:40:10.940Z,1013.4
2018-05-21T16:45:10.959Z,1013.3
2018-05-21T16:50:10.875Z,1013.4
2018-05-21T16:55:11.021Z,1013.4
2018-05-21T17:00:11.224Z,1013.4
2018-05-21T17:05:11.141Z,1013.3
2018-05-21T17:10:11.149Z,1013.3
2018-05-21T17:15:11.201Z,1013.3
2018-05-21T17:20:11.189Z,1013.3
2018-05-21T17:25:11.008Z,1013.2
2018-05-21T17:30:10.931Z,1013.2
2018-05-21T17:35:10.938Z,1013.2
2018-05-21T17:40:10.914Z,1013.1
2018-05-21T17:45:10.968Z,1013.1
2018-05-21T17:50:10.955Z,1013
2018-05-21T17:55:10.909Z,1013.1
2018-05-21T18:00:11.176Z,1013.1
2018-05-21T18:05:10.907Z,1013.1
2018-05-21T18:10:10.947Z,1013.2
2018-05-21T18:15:10.946Z,1013.2
2018-05-21T18:20:11.122Z,1013.1
2018-05-21T18:25:10.828Z,1013.2
2018-05-21T18:30:10.796Z,1013.1
2018-05-21T18:35:11.195Z,1013.1
2018-05-21T18:40:11.094Z,1013.2
2018-05-21T18:45:10.911Z,1013.1
2018-05-21T18:50:10.765Z,1013.1
2018-05-21T18:55:10.901Z,1013.1
2018-05-21T19:00:11.151Z,1013.2
2018-05-21T19:05:10.736Z,1013.2
2018-05-21T19:10:11.005Z,1013.2
2018-05-21T19:15:11.121Z,1013.2
2018-05-21T19:20:10.704Z,1013.1
2018-05-21T19:25:11.140Z,1013.2
2018-05-21T19:30:10.927Z,1013.2
2018-05-21T19:35:11.059Z,1013.2
2018-05-21T19:40:10.928Z,1013.2
2018-05-21T19:45:10.885Z,1013.2
2018-05-21T19:50:10.725Z,1013.3
2018-05-21T19:55:10.877Z,1013.3
2018-05-21T20:00:10.944Z,1013.3
2018-05-21T20:05:10.956Z,1013.4
2018-05-21T20:10:11.074Z,1013.4
2018-05-21T20:15:10.706Z,1013.4
2018-05-21T20:20:10.929Z,1013.5
2018-05-21T20:25:11.090Z,1013.5
2018-05-21T20:30:10.959Z,1013.5
2018-05-21T20:35:10.564Z,1013.5
2018-05-21T20:40:10.630Z,1013.5
2018-05-21T20:45:10.827Z,1013.5
2018-05-21T20:50:10.674Z,1013.4
2018-05-21T20:55:10.810Z,1013.4
2018-05-21T21:00:10.708Z,1013.4
2018-05-21T21:05:10.685Z,1013.4
2018-05-21T21:10:10.773Z,1013.4
2018-05-21T21:15:10.857Z,1013.3
2018-05-21T21:20:10.830Z,1013.4
2018-05-21T21:25:10.793Z,1013.3
2018-05-21T21:30:10.808Z,1013.3
2018-05-21T21:35:10.804Z,1013.3
2018-05-21T21:40:10.879Z,1013.3
2018-05-21T21:45:10.554Z,1013.3
2018-05-21T21:50:10.586Z,1013.3
2018-05-21T21:55:10.716Z,1013.4
2018-05-21T22:00:10.596Z,1013.3
2018-05-21T22:05:10.653Z,1013.2
2018-05-21T22:10:10.751Z,1013.3
2018-05-21T22:15:10.771Z,1013.2
2018-05-21T22:20:10.430Z,1013.2
2018-05-21T22:25:10.643Z,1013.2
2018-05-21T22:30:10.571Z,1013.1
2018-05-21T22:35:10.416Z,1013.2
2018-05-21T22:40:10.473Z,1013.1
2018-05-21T22:45:10.627Z,1013.1
2018-05-21T22:50:10.566Z,1013.1
2018-05-21T22:55:10.583Z,1013.1
2018-05-21T23:00:10.535Z,1013.1
2018-05-21T23:05:10.717Z,1013.1
2018-05-21T23:10:10.623Z,1013
2018-05-21T23:15:10.688Z,1012.9
2018-05-21T23:20:10.334Z,1012.9
2018-05-21T23:25:10.549Z,1012.8
2018-05-21T23:30:10.472Z,1012.8
2018-05-21T23:35:10.547Z,1012.8
2018-05-21T23:40:10.362Z,1012.8
2018-05-21T23:45:10.478Z,1012.8
2018-05-21T23:50:10.330Z,1012.8
2018-05-21T23:55:10.525Z,1012.9
